Time;durP1;ratioP1;P1;durP2;ratioP2;P2;SDS_P1;SDS_P2;PMS_P1;PMS_P2;Temp;Humidity;BMP_temperature;BMP_pressure;BME280_temperature;BME280_humidity;BME280_pressure;Samples;Min_cycle;Max_cycle;Signal;HPM_P1;HPM_P2
2023/06/22 00:01:42;;;;;;;2.67;1.05;;;;;;;22.41;76.26;101246.28;4910865;29;20060;-67
2023/06/22 00:04:28;;;;;;;1.35;1.00;;;;;;;22.32;76.78;101251.53;4917903;29;20063;-67
2023/06/22 00:06:53;;;;;;;1.83;1.13;;;;;;;22.28;77.04;101253.56;4897118;29;20135;-67
2023/06/22 00:09:39;;;;;;;2.35;0.95;;;;;;;22.25;77.13;101251.66;4893248;29;20123;-67
2023/06/22 00:12:05;;;;;;;0.88;0.60;;;;;;;22.14;77.27;101242.84;4899255;29;20040;-67
2023/06/22 00:14:30;;;;;;;1.58;1.08;;;;;;;21.95;78.37;101238.84;4895522;29;20515;-67
2023/06/22 00:16:57;;;;;;;1.35;0.85;;;;;;;21.99;78.71;101238.81;4878235;29;20060;-67
2023/06/22 00:19:23;;;;;;;1.17;0.90;;;;;;;22.02;78.43;101241.50;4896818;29;20110;-67
2023/06/22 00:21:52;;;;;;;0.90;0.80;;;;;;;22.06;78.48;101244.94;4904864;29;20040;-67
2023/06/22 00:24:21;;;;;;;1.73;1.00;;;;;;;22.09;78.29;101240.56;4907473;29;20048;-67
2023/06/22 00:26:48;;;;;;;1.00;0.77;;;;;;;22.10;78.58;101239.41;4892211;29;20396;-67
2023/06/22 00:29:14;;;;;;;1.50;0.95;;;;;;;22.06;78.17;101224.97;4911812;29;20119;-67
2023/06/22 00:31:39;;;;;;;1.52;0.85;;;;;;;21.98;78.24;101231.75;4910605;29;20143;-67
2023/06/22 00:34:06;;;;;;;1.45;0.75;;;;;;;21.83;79.28;101233.19;4876302;29;20041;-67
2023/06/22 00:36:33;;;;;;;1.35;0.85;;;;;;;21.87;79.36;101234.69;4895770;29;20523;-67
2023/06/22 00:39:18;;;;;;;1.70;1.00;;;;;;;21.89;79.33;101248.75;4911568;29;20075;-67
2023/06/22 00:41:44;;;;;;;1.65;1.00;;;;;;;21.90;79.34;101250.31;4912766;29;20143;-67
2023/06/22 00:44:09;;;;;;;1.65;0.93;;;;;;;21.90;79.54;101255.00;4931431;28;20122;-67
2023/06/22 00:46:35;;;;;;;0.98;0.75;;;;;;;21.95;79.20;101254.56;4932343;29;20067;-67
2023/06/22 00:49:00;;;;;;;1.52;0.82;;;;;;;21.95;79.18;101257.31;4966935;28;20042;-67
2023/06/22 00:51:27;;;;;;;1.25;0.90;;;;;;;21.94;79.37;101261.22;4973588;28;20026;-67
2023/06/22 00:53:53;;;;;;;1.85;1.00;;;;;;;21.94;79.41;101261.22;4972248;28;20046;-68
2023/06/22 00:56:19;;;;;;;0.80;0.80;;;;;;;21.95;79.43;101255.31;4989179;28;20142;-67
2023/06/22 00:58:47;;;;;;;1.23;0.90;;;;;;;21.92;79.57;101256.16;4987135;28;20578;-67
2023/06/22 01:01:14;;;;;;;1.08;0.80;;;;;;;21.95;79.33;101251.81;4963205;28;20045;-67
2023/06/22 01:03:39;;;;;;;1.40;0.77;;;;;;;21.93;79.95;101248.72;4989043;28;20455;-67
2023/06/22 01:06:10;;;;;;;1.63;1.00;;;;;;;21.92;79.30;101253.41;4962383;28;20039;-67
2023/06/22 01:08:44;;;;;;;2.25;1.08;;;;;;;21.91;79.19;101257.34;4985689;28;20520;-67
2023/06/22 01:11:19;;;;;;;2.70;0.80;;;;;;;21.84;79.12;101248.44;4971957;28;20034;-67
2023/06/22 01:14:08;;;;;;;1.80;0.73;;;;;;;21.67;80.28;101252.22;4989032;28;20121;-67
2023/06/22 01:16:36;;;;;;;2.28;1.10;;;;;;;21.66;80.06;101256.16;4968997;28;20046;-67
2023/06/22 01:19:16;;;;;;;2.80;1.00;;;;;;;21.72;79.75;101254.50;5000760;28;20120;-67
2023/06/22 01:21:42;;;;;;;3.55;1.05;;;;;;;21.75;79.75;101253.66;5011131;28;20041;-67
2023/06/22 01:24:22;;;;;;;2.03;1.02;;;;;;;21.75;79.30;101259.16;5004758;28;20022;-67
2023/06/22 01:26:56;;;;;;;1.83;0.90;;;;;;;21.69;79.48;101258.06;4997063;28;20034;-67
2023/06/22 01:29:42;;;;;;;1.90;0.90;;;;;;;21.67;80.00;101246.75;5002484;28;20055;-67
2023/06/22 01:32:10;;;;;;;1.13;0.77;;;;;;;21.53;80.05;101240.28;4927612;29;20107;-67
2023/06/22 01:34:40;;;;;;;1.02;0.90;;;;;;;21.48;80.11;101240.78;4927469;29;20510;-67
2023/06/22 01:37:07;;;;;;;1.60;0.88;;;;;;;21.42;80.96;101244.38;4913213;29;20047;-67
2023/06/22 01:39:32;;;;;;;0.85;0.77;;;;;;;21.26;81.71;101242.25;4930491;29;20032;-67
2023/06/22 01:41:59;;;;;;;1.88;0.80;;;;;;;21.27;81.78;101235.56;4930762;29;20032;-67
2023/06/22 01:44:28;;;;;;;1.52;1.10;;;;;;;21.27;81.27;101227.34;4908962;29;20195;-67
2023/06/22 01:46:54;;;;;;;1.05;0.60;;;;;;;21.37;81.36;101240.13;4910748;29;20134;-67
2023/06/22 01:49:20;;;;;;;1.73;0.77;;;;;;;21.20;81.21;101249.38;4914256;29;20043;-67
2023/06/22 01:51:46;;;;;;;3.28;0.80;;;;;;;21.16;82.07;101239.66;4926814;29;20035;-67
2023/06/22 01:54:12;;;;;;;0.82;0.60;;;;;;;21.14;82.08;101242.81;4914417;29;20162;-67
2023/06/22 01:56:39;;;;;;;0.90;0.77;;;;;;;21.11;82.64;101248.34;4929475;29;20560;-67
2023/06/22 01:59:37;;;;;;;0.88;0.60;;;;;;;21.17;82.40;101250.22;4913929;29;20530;-67
2023/06/22 02:02:09;;;;;;;1.50;0.77;;;;;;;21.30;82.16;101242.19;4886132;29;20043;-67
2023/06/22 02:04:48;;;;;;;1.10;1.00;;;;;;;21.26;81.28;101244.22;4913551;29;20483;-67
2023/06/22 02:07:17;;;;;;;1.35;0.80;;;;;;;21.12;82.08;101247.13;4924277;29;20087;-67
2023/06/22 02:09:45;;;;;;;0.60;0.60;;;;;;;21.03;82.62;101235.91;4984613;28;20523;-67
2023/06/22 02:12:18;;;;;;;1.67;0.98;;;;;;;21.11;82.25;101235.41;5001434;28;20041;-67
2023/06/22 02:14:47;;;;;;;1.38;0.85;;;;;;;21.16;82.12;101242.38;4992454;28;20405;-67
2023/06/22 02:17:13;;;;;;;3.38;1.05;;;;;;;21.01;82.30;101241.03;4991447;28;20636;-67
2023/06/22 02:19:42;;;;;;;0.93;0.80;;;;;;;20.97;82.85;101245.75;4999122;28;20041;-67
2023/06/22 02:22:07;;;;;;;1.17;0.93;;;;;;;20.97;82.91;101241.06;4975922;28;20473;-67
2023/06/22 02:24:33;;;;;;;1.48;0.93;;;;;;;20.99;82.60;101235.94;5013816;28;20033;-67
2023/06/22 02:27:00;;;;;;;1.52;1.10;;;;;;;21.05;82.40;101241.75;4992120;28;20038;-67
2023/06/22 02:29:26;;;;;;;1.48;0.90;;;;;;;21.04;81.91;101238.25;5007424;28;20041;-67
2023/06/22 02:31:52;;;;;;;1.58;1.00;;;;;;;20.93;82.20;101234.84;4992206;28;20021;-66
2023/06/22 02:34:19;;;;;;;1.67;0.95;;;;;;;20.75;83.05;101222.56;4973457;28;20041;-67
2023/06/22 02:36:52;;;;;;;1.30;0.80;;;;;;;20.78;83.17;101217.03;4992598;28;20392;-67
2023/06/22 02:39:22;;;;;;;0.77;0.75;;;;;;;20.72;82.78;101226.88;4990593;28;20026;-67
2023/06/22 02:41:52;;;;;;;;;;;;;;;20.78;82.53;101217.03;4988089;28;20548;-67
2023/06/22 02:44:38;;;;;;;0.95;0.70;;;;;;;20.90;82.49;101221.97;4990666;28;19920;-67
2023/06/22 02:47:24;;;;;;;4.13;1.00;;;;;;;20.91;81.74;101229.00;4916045;29;20052;-67
2023/06/22 02:49:50;;;;;;;0.82;0.65;;;;;;;20.88;81.74;101229.81;4885551;29;20180;-68
2023/06/22 02:52:36;;;;;;;2.00;0.88;;;;;;;20.86;81.77;101234.94;4889743;29;20139;-67
2023/06/22 02:55:02;;;;;;;1.70;0.90;;;;;;;20.80;81.26;101236.56;4794934;29;20507;-67
2023/06/22 02:57:29;;;;;;;2.25;0.77;;;;;;;20.60;82.22;101225.47;4780325;29;20092;-66
2023/06/22 02:59:55;;;;;;;0.70;0.70;;;;;;;20.57;82.75;101229.03;4782054;29;20106;-66
2023/06/22 03:02:21;;;;;;;1.15;0.77;;;;;;;20.61;82.94;101231.72;4811272;29;20121;-66
2023/06/22 03:04:48;;;;;;;0.93;0.57;;;;;;;20.54;82.59;101232.56;4784764;29;20403;-67
2023/06/22 03:07:15;;;;;;;1.05;0.95;;;;;;;20.54;82.99;101237.25;4797388;29;20645;-67
2023/06/22 03:09:42;;;;;;;0.77;0.75;;;;;;;20.56;82.79;101235.66;4797528;29;20035;-66
2023/06/22 03:12:08;;;;;;;1.15;0.80;;;;;;;20.63;82.38;101234.81;4797599;29;20051;-67
2023/06/22 03:14:42;;;;;;;1.17;1.00;;;;;;;20.58;82.09;101233.31;4779915;29;20042;-66
2023/06/22 03:17:10;;;;;;;1.73;1.00;;;;;;;20.60;82.52;101241.09;4806767;29;20049;-66
2023/06/22 03:19:36;;;;;;;0.95;0.82;;;;;;;20.62;82.44;101238.72;4797343;29;20042;-66
2023/06/22 03:22:02;;;;;;;2.15;1.10;;;;;;;20.59;81.72;101234.09;4797200;29;20068;-67
2023/06/22 03:24:30;;;;;;;1.00;0.70;;;;;;;20.60;82.22;101230.16;4818617;29;20539;-66
2023/06/22 03:26:56;;;;;;;1.65;0.85;;;;;;;20.60;81.89;101247.34;4851307;29;20048;-66
2023/06/22 03:29:23;;;;;;;1.63;1.15;;;;;;;20.63;81.95;101232.84;4890142;29;20033;-66
2023/06/22 03:31:49;;;;;;;1.30;1.00;;;;;;;20.55;82.24;101244.28;4916234;28;20399;-66
2023/06/22 03:34:14;;;;;;;1.33;1.20;;;;;;;20.54;82.22;101250.94;4966156;28;20041;-66
2023/06/22 03:36:40;;;;;;;2.05;0.90;;;;;;;20.56;82.24;101254.84;5000707;28;20412;-66
2023/06/22 03:39:05;;;;;;;1.02;0.90;;;;;;;20.67;81.89;101246.50;4992002;28;20105;-66
2023/06/22 03:41:31;;;;;;;2.00;1.23;;;;;;;20.70;81.90;101251.16;4987649;28;20061;-66
2023/06/22 03:43:56;;;;;;;2.13;0.95;;;;;;;20.75;82.08;101252.69;5004899;28;20033;-66
2023/06/22 03:46:22;;;;;;;4.72;1.35;;;;;;;20.64;81.78;101258.25;4992141;28;20021;-66
2023/06/22 03:48:47;;;;;;;1.35;0.95;;;;;;;20.39;83.27;101264.00;4992581;28;20076;-66
2023/06/22 03:51:13;;;;;;;1.08;0.80;;;;;;;20.46;83.40;101272.13;5000609;28;20501;-66
2023/06/22 03:53:38;;;;;;;2.20;1.00;;;;;;;20.50;83.27;101269.34;5008077;28;20051;-66
2023/06/22 03:56:04;;;;;;;2.17;0.80;;;;;;;20.46;83.19;101271.38;5012746;28;20072;-66
2023/06/22 03:58:32;;;;;;;1.48;0.93;;;;;;;20.60;83.65;101279.44;5011792;28;20033;-66
2023/06/22 04:00:59;;;;;;;1.27;0.98;;;;;;;20.51;82.83;101282.66;5003651;28;20064;-66
2023/06/22 04:03:25;;;;;;;2.05;1.00;;;;;;;20.59;83.04;101277.88;5006947;28;20049;-66
2023/06/22 04:05:50;;;;;;;1.25;0.85;;;;;;;20.71;82.42;101271.09;5011946;28;20392;-66
2023/06/22 04:08:16;;;;;;;2.30;1.08;;;;;;;20.72;81.37;101276.16;5011212;28;20192;-66
2023/06/22 04:10:41;;;;;;;1.13;1.02;;;;;;;20.69;81.54;101287.94;4994127;28;20034;-66
2023/06/22 04:13:07;;;;;;;1.23;0.93;;;;;;;20.72;82.26;101292.59;5012188;28;20037;-66
2023/06/22 04:15:33;;;;;;;1.45;0.95;;;;;;;20.78;82.02;101295.66;5012164;28;20022;-66
2023/06/22 04:17:58;;;;;;;1.45;1.00;;;;;;;20.89;82.18;101296.31;5006437;28;20056;-66
2023/06/22 04:20:26;;;;;;;1.30;0.80;;;;;;;20.96;81.99;101305.25;5011191;28;20030;-66
2023/06/22 04:22:55;;;;;;;2.13;1.13;;;;;;;21.01;82.17;101307.56;5011663;28;20026;-66
2023/06/22 04:25:21;;;;;;;1.45;1.08;;;;;;;21.08;81.46;101299.25;5009166;28;20052;-66
2023/06/22 04:27:47;;;;;;;1.50;1.05;;;;;;;21.11;81.53;101295.69;5004076;28;20046;-66
2023/06/22 04:30:15;;;;;;;1.17;0.82;;;;;;;21.16;81.48;101295.22;5010592;28;20026;-66
2023/06/22 04:32:40;;;;;;;1.00;0.85;;;;;;;21.16;81.43;101294.44;5004906;28;20365;-66
2023/06/22 04:35:08;;;;;;;1.20;1.10;;;;;;;21.26;81.22;101294.31;4988529;28;20033;-66
2023/06/22 04:37:34;;;;;;;2.13;1.17;;;;;;;21.35;80.73;101296.56;4969286;28;20026;-66
2023/06/22 04:39:59;;;;;;;3.00;0.90;;;;;;;21.38;80.28;101296.50;4977609;28;20045;-66
2023/06/22 04:42:26;;;;;;;1.08;0.98;;;;;;;21.42;79.05;101286.28;5011332;28;20042;-66
2023/06/22 04:44:52;;;;;;;1.10;0.93;;;;;;;21.45;78.63;101290.13;5001122;28;20029;-65
2023/06/22 04:47:18;;;;;;;1.92;0.90;;;;;;;21.50;78.29;101286.97;5010231;28;20408;-65
2023/06/22 04:49:43;;;;;;;1.70;0.90;;;;;;;21.50;78.64;101295.94;5016760;28;20041;-65
2023/06/22 04:52:11;;;;;;;1.75;0.93;;;;;;;21.55;78.45;101297.44;4986032;28;20523;-65
2023/06/22 04:54:40;;;;;;;2.25;1.17;;;;;;;21.63;78.91;101301.66;5008685;28;20034;-65
2023/06/22 04:57:10;;;;;;;1.52;1.00;;;;;;;21.70;78.95;101295.28;5008523;28;20034;-66
2023/06/22 04:59:38;;;;;;;1.42;1.00;;;;;;;21.71;79.32;101297.63;5008557;28;20042;-66
2023/06/22 05:02:05;;;;;;;2.00;1.08;;;;;;;21.84;78.78;101295.88;4994507;28;20384;-66
2023/06/22 05:04:32;;;;;;;2.78;1.05;;;;;;;21.87;78.54;101294.25;5001557;28;20410;-67
2023/06/22 05:06:59;;;;;;;1.23;0.85;;;;;;;21.92;77.76;101293.78;5001447;28;20033;-67
2023/06/22 05:09:25;;;;;;;1.38;0.82;;;;;;;21.82;77.79;101302.94;4999118;28;20392;-67
2023/06/22 05:11:51;;;;;;;1.77;0.98;;;;;;;21.98;77.13;101301.13;5012146;28;20030;-67
2023/06/22 05:14:17;;;;;;;1.23;0.75;;;;;;;21.97;77.25;101304.31;5010791;28;20104;-67
2023/06/22 05:16:42;;;;;;;2.22;0.98;;;;;;;22.07;76.77;101303.34;5019621;28;20037;-67
2023/06/22 05:19:08;;;;;;;1.42;0.82;;;;;;;22.12;76.55;101316.59;5004839;28;20106;-67
2023/06/22 05:21:34;;;;;;;0.95;0.90;;;;;;;22.16;76.51;101309.84;5012839;28;20042;-67
2023/06/22 05:24:02;;;;;;;1.30;1.00;;;;;;;22.17;75.81;101305.13;5017257;28;20025;-67
2023/06/22 05:26:30;;;;;;;1.25;0.75;;;;;;;22.36;75.77;101310.69;5003454;28;20129;-67
2023/06/22 05:28:57;;;;;;;1.13;0.77;;;;;;;22.52;75.21;101307.25;5004389;28;20069;-66
2023/06/22 05:31:23;;;;;;;2.22;0.90;;;;;;;22.79;74.20;101310.72;4995740;28;20057;-66
2023/06/22 05:33:51;;;;;;;1.48;0.95;;;;;;;22.90;72.82;101316.00;5013138;28;20033;-66
2023/06/22 05:36:19;;;;;;;2.35;1.30;;;;;;;22.94;72.03;101320.22;5000501;28;20556;-67
2023/06/22 05:38:45;;;;;;;1.58;1.08;;;;;;;22.99;72.67;101319.75;5007020;28;20049;-66
2023/06/22 05:41:10;;;;;;;1.63;1.08;;;;;;;23.18;71.88;101309.94;5010071;28;20022;-67
2023/06/22 05:43:36;;;;;;;1.35;0.90;;;;;;;23.28;72.89;101317.97;4998909;28;20109;-66
2023/06/22 05:46:02;;;;;;;1.55;1.00;;;;;;;23.57;72.21;101314.63;5009462;28;20038;-67
2023/06/22 05:48:28;;;;;;;1.38;0.93;;;;;;;23.69;71.36;101316.69;5009663;28;20028;-66
2023/06/22 05:50:53;;;;;;;2.80;0.73;;;;;;;23.69;71.13;101305.69;4988365;28;20033;-67
2023/06/22 05:53:19;;;;;;;1.60;0.80;;;;;;;23.53;70.17;101308.41;5008253;28;20044;-67
2023/06/22 05:55:45;;;;;;;1.85;0.90;;;;;;;23.58;68.75;101318.91;4991121;28;20030;-67
2023/06/22 05:58:10;;;;;;;1.67;0.88;;;;;;;23.60;68.87;101316.50;5009598;28;20030;-67
2023/06/22 06:00:36;;;;;;;0.80;0.52;;;;;;;23.52;69.88;101313.13;4986098;28;20513;-67
2023/06/22 06:03:03;;;;;;;2.25;1.13;;;;;;;23.59;69.46;101317.72;4990294;28;20021;-67
2023/06/22 06:05:33;;;;;;;4.60;1.02;;;;;;;23.83;68.72;101317.13;5010118;28;20034;-67
2023/06/22 06:08:00;;;;;;;1.48;0.70;;;;;;;23.96;68.44;101308.97;5009677;28;20042;-67
2023/06/22 06:10:26;;;;;;;0.88;0.70;;;;;;;24.05;69.42;101312.72;5004645;28;20428;-67
2023/06/22 06:12:52;;;;;;;2.22;0.98;;;;;;;24.23;68.35;101315.03;5010064;28;20025;-67
2023/06/22 06:15:17;;;;;;;1.65;0.80;;;;;;;24.45;66.59;101316.00;4999870;28;20041;-66
2023/06/22 06:17:55;;;;;;;2.45;0.73;;;;;;;24.42;65.20;101308.63;5002472;28;20480;-67
2023/06/22 06:20:23;;;;;;;1.10;0.90;;;;;;;24.60;65.84;101310.91;4991711;28;20038;-66
2023/06/22 06:22:49;;;;;;;0.77;0.77;;;;;;;24.71;65.56;101316.91;5021270;28;20034;-67
2023/06/22 06:25:19;;;;;;;1.17;1.00;;;;;;;24.87;64.78;101312.13;5009043;28;20476;-67
2023/06/22 06:27:50;;;;;;;1.48;0.82;;;;;;;24.95;66.20;101313.47;5001812;28;20042;-67
2023/06/22 06:30:18;;;;;;;1.27;0.60;;;;;;;24.97;65.72;101305.56;5009730;28;20034;-67
2023/06/22 06:32:45;;;;;;;1.42;0.55;;;;;;;24.97;64.79;101310.31;5003841;28;20440;-67
2023/06/22 06:35:12;;;;;;;2.20;0.90;;;;;;;25.03;65.64;101303.81;5009913;28;20076;-67
2023/06/22 06:37:48;;;;;;;1.48;0.90;;;;;;;25.21;65.02;101302.50;5009545;28;20100;-67
2023/06/22 06:40:15;;;;;;;1.15;0.70;;;;;;;25.35;64.74;101315.88;4979853;28;20034;-67
2023/06/22 06:42:44;;;;;;;0.80;0.50;;;;;;;25.40;64.55;101309.84;5006378;28;20030;-67
2023/06/22 06:45:14;;;;;;;1.58;1.05;;;;;;;25.54;63.39;101298.38;5009604;28;20552;-67
2023/06/22 06:47:40;;;;;;;2.55;0.65;;;;;;;25.78;63.10;101302.38;5009284;28;20052;-67
2023/06/22 06:50:06;;;;;;;1.60;0.65;;;;;;;26.01;62.51;101303.97;5007699;28;20022;-67
2023/06/22 06:52:32;;;;;;;0.90;0.85;;;;;;;26.20;62.16;101306.53;4985674;28;20068;-67
2023/06/22 06:54:58;;;;;;;1.52;0.90;;;;;;;26.13;59.55;101300.47;4991088;28;20500;-67
2023/06/22 06:57:28;;;;;;;1.30;0.73;;;;;;;26.19;59.36;101293.91;5009556;28;20030;-67
2023/06/22 06:59:56;;;;;;;1.00;0.55;;;;;;;25.97;59.55;101295.03;5003937;28;20121;-67
2023/06/22 07:02:22;;;;;;;1.25;0.70;;;;;;;25.93;60.49;101286.88;4991254;28;20046;-67
2023/06/22 07:04:48;;;;;;;0.70;0.52;;;;;;;26.10;61.11;101296.59;4991600;28;20172;-67
2023/06/22 07:07:13;;;;;;;1.40;0.90;;;;;;;26.36;61.16;101292.56;4988233;28;20101;-67
2023/06/22 07:09:39;;;;;;;0.93;0.63;;;;;;;26.67;59.91;101298.19;4993985;28;20030;-67
2023/06/22 07:12:25;;;;;;;0.55;0.55;;;;;;;26.79;58.85;101303.66;5013909;28;20408;-67
2023/06/22 07:14:52;;;;;;;0.88;0.73;;;;;;;26.99;57.41;101291.50;4933452;29;20051;-71
2023/06/22 07:17:17;;;;;;;1.40;0.93;;;;;;;26.99;56.77;101299.78;4932501;29;20058;-67
2023/06/22 07:19:43;;;;;;;1.25;0.60;;;;;;;26.83;56.30;101286.19;4929870;29;20032;-67
2023/06/22 07:22:08;;;;;;;1.08;0.68;;;;;;;26.87;55.94;101293.13;4912809;29;20043;-67
2023/06/22 07:24:34;;;;;;;2.17;0.60;;;;;;;26.77;57.00;101300.56;4932016;29;20122;-67
2023/06/22 07:27:00;;;;;;;1.40;0.70;;;;;;;26.87;57.51;101303.44;4933303;29;20430;-67
2023/06/22 07:29:26;;;;;;;0.82;0.82;;;;;;;26.88;57.78;101299.41;4916182;29;20158;-67
2023/06/22 07:31:52;;;;;;;1.40;0.80;;;;;;;26.71;56.00;101293.31;4945273;29;20043;-67
2023/06/22 07:34:18;;;;;;;1.20;0.60;;;;;;;26.64;57.17;101297.06;4929966;29;20032;-67
2023/06/22 07:36:44;;;;;;;1.30;0.70;;;;;;;26.48;57.26;101297.25;4933477;29;20479;-67
2023/06/22 07:39:10;;;;;;;0.98;0.80;;;;;;;26.71;57.24;101294.06;4928127;29;20116;-67
2023/06/22 07:41:35;;;;;;;0.88;0.60;;;;;;;26.99;57.46;101305.31;4918179;29;20476;-67
2023/06/22 07:44:04;;;;;;;0.80;0.60;;;;;;;27.11;56.70;101302.50;4934043;29;20743;-67
2023/06/22 07:46:30;;;;;;;0.65;0.55;;;;;;;27.28;56.74;101311.34;4932300;29;20051;-67
2023/06/22 07:48:56;;;;;;;1.40;0.70;;;;;;;27.49;57.14;101311.31;4940282;28;20035;-67
2023/06/22 07:51:22;;;;;;;2.13;0.55;;;;;;;27.55;56.76;101305.97;4973689;28;20038;-67
2023/06/22 07:53:47;;;;;;;0.70;0.52;;;;;;;27.63;55.40;101305.25;5015604;28;20435;-67
2023/06/22 07:56:18;;;;;;;0.80;0.70;;;;;;;27.62;54.09;101308.47;5005555;28;20443;-67
2023/06/22 07:58:44;;;;;;;1.40;0.77;;;;;;;27.59;54.13;101303.81;5010654;28;20037;-67
2023/06/22 08:01:10;;;;;;;0.55;0.43;;;;;;;27.51;54.87;101308.09;5013458;28;20076;-67
2023/06/22 08:03:35;;;;;;;0.93;0.60;;;;;;;27.40;55.19;101304.97;5008726;28;20038;-67
2023/06/22 08:06:01;;;;;;;0.77;0.57;;;;;;;27.35;55.28;101306.34;5007817;28;20117;-67
2023/06/22 08:08:26;;;;;;;1.13;0.90;;;;;;;27.40;54.80;101314.06;5022177;28;20477;-67
2023/06/22 08:10:55;;;;;;;5.30;0.80;;;;;;;27.34;55.81;101304.03;4999997;28;20034;-67
2023/06/22 08:13:20;;;;;;;0.82;0.50;;;;;;;27.41;55.44;101301.00;4989208;28;20041;-67
2023/06/22 08:15:46;;;;;;;1.15;0.60;;;;;;;27.64;55.44;101306.03;5019237;28;20105;-67
2023/06/22 08:18:11;;;;;;;1.10;0.60;;;;;;;27.84;55.64;101303.59;5012987;28;20065;-67
2023/06/22 08:20:37;;;;;;;0.98;0.73;;;;;;;27.90;54.15;101304.53;5004688;28;20109;-67
2023/06/22 08:23:06;;;;;;;0.88;0.70;;;;;;;28.22;53.41;101306.03;5007730;28;20030;-68
2023/06/22 08:25:35;;;;;;;0.88;0.77;;;;;;;28.29;53.12;101300.97;5010642;28;20046;-68
2023/06/22 08:28:02;;;;;;;1.90;0.90;;;;;;;28.38;53.29;101308.50;5012501;28;20041;-68
2023/06/22 08:30:27;;;;;;;1.58;0.50;;;;;;;28.55;52.66;101309.00;5009532;28;20025;-68
2023/06/22 08:32:54;;;;;;;0.88;0.50;;;;;;;28.74;51.20;101300.22;5014465;28;20033;-68
2023/06/22 08:35:20;;;;;;;1.00;0.60;;;;;;;28.91;52.26;101298.66;4980568;28;20046;-68
2023/06/22 08:37:50;;;;;;;0.55;0.50;;;;;;;29.23;51.32;101292.41;4999866;28;20025;-68
2023/06/22 08:40:15;;;;;;;0.80;0.60;;;;;;;29.42;49.97;101296.66;5004243;28;20574;-68
2023/06/22 08:42:41;;;;;;;0.40;0.40;;;;;;;29.47;51.46;101298.03;4992931;28;20037;-68
2023/06/22 08:45:07;;;;;;;2.22;0.60;;;;;;;29.60;48.99;101295.81;5002465;28;20030;-68
2023/06/22 08:47:33;;;;;;;1.33;0.50;;;;;;;29.03;49.79;101291.38;5011764;28;20040;-67
2023/06/22 08:49:58;;;;;;;0.70;0.50;;;;;;;29.38;49.64;101301.63;5010374;28;20037;-68
2023/06/22 08:52:24;;;;;;;1.48;0.52;;;;;;;29.63;49.43;101305.22;5000125;28;20083;-68
2023/06/22 08:54:50;;;;;;;2.85;0.50;;;;;;;29.58;46.30;101289.97;5011823;28;20029;-68
2023/06/22 08:57:15;;;;;;;0.35;0.35;;;;;;;29.78;47.55;101287.44;5010511;28;20121;-67
2023/06/22 08:59:42;;;;;;;0.35;0.30;;;;;;;29.87;47.38;101284.59;5001567;28;20022;-67
2023/06/22 09:02:07;;;;;;;1.63;0.45;;;;;;;29.86;46.98;101271.94;4990410;28;20120;-67
2023/06/22 09:04:34;;;;;;;0.95;0.40;;;;;;;29.67;47.75;101281.59;5006035;28;20173;-67
2023/06/22 09:07:03;;;;;;;0.75;0.60;;;;;;;29.73;48.23;101276.97;5001820;28;20053;-67
2023/06/22 09:09:29;;;;;;;0.47;0.45;;;;;;;29.59;48.73;101279.63;5008264;28;20049;-67
2023/06/22 09:11:54;;;;;;;1.40;0.80;;;;;;;29.67;48.95;101283.59;4999978;28;20080;-67
2023/06/22 09:14:20;;;;;;;1.05;0.60;;;;;;;29.50;48.92;101277.66;5015621;28;20403;-67
2023/06/22 09:16:45;;;;;;;0.75;0.45;;;;;;;29.48;48.96;101269.03;5001263;28;20030;-67
2023/06/22 09:19:12;;;;;;;1.17;0.60;;;;;;;29.58;48.01;101272.56;5001318;28;20045;-67
2023/06/22 09:21:38;;;;;;;1.67;0.60;;;;;;;29.75;47.78;101268.91;4993417;28;20041;-67
2023/06/22 09:24:03;;;;;;;0.47;0.32;;;;;;;29.97;48.43;101269.41;4993245;28;20026;-67
2023/06/22 09:26:29;;;;;;;0.57;0.50;;;;;;;30.30;48.16;101269.34;5007557;28;20030;-67
2023/06/22 09:28:54;;;;;;;0.28;0.28;;;;;;;30.49;47.79;101265.16;5008392;28;20033;-67
2023/06/22 09:31:25;;;;;;;5.28;0.50;;;;;;;30.61;46.58;101260.56;5010137;28;20025;-68
2023/06/22 09:33:54;;;;;;;0.68;0.60;;;;;;;30.92;47.38;101260.91;5009096;28;20570;-68
2023/06/22 09:36:23;;;;;;;0.90;0.40;;;;;;;31.13;46.20;101258.97;5000360;28;20046;-67
2023/06/22 09:38:55;;;;;;;0.32;0.30;;;;;;;31.30;45.64;101257.22;5002269;28;20504;-67
2023/06/22 09:41:21;;;;;;;0.60;0.60;;;;;;;31.50;44.26;101255.28;4998560;28;20511;-67
2023/06/22 09:43:48;;;;;;;1.58;0.50;;;;;;;31.46;45.37;101245.56;5009095;28;20046;-67
2023/06/22 09:46:15;;;;;;;1.05;0.52;;;;;;;31.74;46.02;101241.94;5001755;28;20087;-67
2023/06/22 09:48:40;;;;;;;0.43;0.43;;;;;;;31.63;45.69;101247.34;4988080;28;20038;-67
2023/06/22 09:51:06;;;;;;;2.55;0.63;;;;;;;31.77;45.83;101251.31;5009825;28;20405;-67
2023/06/22 09:53:31;;;;;;;0.80;0.68;;;;;;;31.75;44.40;101246.25;5010042;28;20064;-68
2023/06/22 09:55:57;;;;;;;0.70;0.50;;;;;;;31.85;44.79;101244.88;5009210;28;20092;-67
2023/06/22 09:58:23;;;;;;;0.60;0.50;;;;;;;32.00;44.82;101247.59;5007107;28;20516;-68
2023/06/22 10:00:48;;;;;;;1.60;0.80;;;;;;;31.37;43.79;101242.88;5009723;28;20025;-68
2023/06/22 10:03:14;;;;;;;1.48;0.70;;;;;;;31.71;43.69;101248.47;5004387;28;20042;-67
2023/06/22 10:05:39;;;;;;;1.38;0.60;;;;;;;31.55;43.56;101237.84;5000319;28;20462;-67
2023/06/22 10:08:05;;;;;;;0.82;0.60;;;;;;;30.57;45.40;101230.16;5008152;28;20030;-67
2023/06/22 10:10:30;;;;;;;1.95;0.70;;;;;;;31.02;46.08;101229.72;5010364;28;20656;-67
2023/06/22 10:12:57;;;;;;;1.00;0.68;;;;;;;31.01;45.49;101225.38;4995818;28;20095;-67
2023/06/22 10:15:23;;;;;;;0.70;0.50;;;;;;;31.21;45.15;101230.25;4994327;28;20497;-67
2023/06/22 10:17:51;;;;;;;0.63;0.60;;;;;;;31.19;45.00;101224.38;5001102;28;20109;-68
2023/06/22 10:20:18;;;;;;;1.05;0.70;;;;;;;31.33;44.95;101222.81;5009371;28;20108;-68
2023/06/22 10:22:44;;;;;;;1.00;0.60;;;;;;;31.45;45.17;101224.56;5009934;28;20041;-67
2023/06/22 10:25:11;;;;;;;1.33;0.65;;;;;;;31.55;45.19;101229.50;5009475;28;20038;-67
2023/06/22 10:27:39;;;;;;;0.93;0.65;;;;;;;31.86;44.33;101228.91;5006513;28;20036;-67
2023/06/22 10:30:07;;;;;;;1.27;0.80;;;;;;;31.61;43.79;101224.75;5004148;28;20022;-67
2023/06/22 10:32:32;;;;;;;1.35;0.60;;;;;;;31.68;44.14;101218.81;5004261;28;20077;-68
2023/06/22 10:34:58;;;;;;;0.60;0.50;;;;;;;32.01;44.87;101220.50;5009624;28;20069;-68
2023/06/22 10:37:24;;;;;;;1.02;0.70;;;;;;;31.57;44.33;101206.75;5008814;28;20045;-68
2023/06/22 10:40:10;;;;;;;1.02;0.60;;;;;;;31.87;45.11;101213.69;5011670;28;20033;-68
2023/06/22 10:42:35;;;;;;;1.63;0.73;;;;;;;32.18;44.09;101211.06;4914214;29;20063;-67
2023/06/22 10:45:01;;;;;;;0.77;0.60;;;;;;;32.24;44.42;101202.75;4912775;29;20028;-68
2023/06/22 10:47:29;;;;;;;1.05;0.70;;;;;;;32.54;43.45;101192.94;4902623;29;20044;-68
2023/06/22 10:49:54;;;;;;;1.33;0.93;;;;;;;32.39;43.60;101192.25;4915290;29;20524;-69
2023/06/22 10:52:20;;;;;;;1.45;0.60;;;;;;;32.60;44.13;101193.75;4917985;29;20055;-68
2023/06/22 10:54:45;;;;;;;1.60;0.60;;;;;;;32.61;42.81;101195.28;4915158;29;20503;-68
2023/06/22 10:57:11;;;;;;;1.30;0.80;;;;;;;32.87;43.85;101193.19;4913399;29;20440;-68
2023/06/22 10:59:36;;;;;;;0.90;0.70;;;;;;;33.36;43.66;101197.63;4913408;29;20160;-66
2023/06/22 11:02:02;;;;;;;1.15;0.55;;;;;;;33.34;42.47;101189.75;4910181;29;20032;-68
2023/06/22 11:04:27;;;;;;;1.08;0.60;;;;;;;33.37;42.92;101185.19;4914737;29;20040;-68
2023/06/22 11:06:53;;;;;;;1.33;0.88;;;;;;;33.47;43.03;101181.72;4916172;29;20044;-68
2023/06/22 11:09:20;;;;;;;0.60;0.60;;;;;;;33.51;42.52;101182.25;4929467;29;20036;-68
2023/06/22 11:11:50;;;;;;;0.90;0.70;;;;;;;33.67;42.92;101170.38;4901423;29;20063;-67
2023/06/22 11:14:16;;;;;;;0.90;0.73;;;;;;;33.42;43.41;101176.06;4914099;29;20076;-68
2023/06/22 11:16:47;;;;;;;1.33;0.70;;;;;;;33.58;42.90;101173.41;4914504;29;20067;-68
2023/06/22 11:19:36;;;;;;;1.40;0.85;;;;;;;33.16;42.17;101178.22;4957547;28;20042;-68
2023/06/22 11:22:01;;;;;;;1.75;1.10;;;;;;;33.08;41.96;101172.34;4995665;28;20408;-67
2023/06/22 11:24:27;;;;;;;2.13;0.93;;;;;;;33.06;42.92;101165.72;4989117;28;20040;-67
2023/06/22 11:26:52;;;;;;;1.55;0.77;;;;;;;33.21;43.65;101167.09;5010987;28;20025;-68